Minneapolis, MN

11:11 PM CDT on October 30, 2014 (GMT -0500)
Saint Paul Downtown-Holman | Change Station
CLOSE
Current Station
Airport
Location: St. Paul,
Elevation: 702 ft
Nearby Weather Stations

Elev 702 ft 44.93 °N, 93.06 °W | Updated 18 minutes ago

Partly Cloudy
Partly Cloudy
34 °F
Feels Like 22 °F
N
21
Wind Variable Wind from North
Gusts 33 mph

Today
High -- | Low -- °F
--% Chance of Precip.
Yesterday
High -- | Low -- °F
Precip. -- in
7:48 AM 6:03 PM
Waxing Crescent, 51% visible
Pressure 30.36 in
Visibility 10.0 miles
Clouds Clear
Windchill 22 °F
Dew Point 14 °F
Humidity 44%
Rainfall 0.00 in
Snow Depth Not available.
UV 0 out of 12
Pollen .10 out of 12
Air Quality Not available.
Flu Activity Not available.
METAR KSTP 310353Z AUTO 35018G29KT 10SM CLR 01/M10 A3035 RMK AO2 PK WND 35031/0316 SLP281 T00111100

More Conditions Fewer Conditions

Pressure 30.36 in
Visibility 10.0 miles
Clouds Clear
Windchill 22 °F
Dew Point 14 °F
Humidity 44%
Rainfall 0.00 in
Snow Depth Not available.
UV 0 out of 12
Pollen .10 out of 12
Air Quality Not available.
Flu Activity Not available.
METAR KSTP 310353Z AUTO 35018G29KT 10SM CLR 01/M10 A3035 RMK AO2 PK WND 35031/0316 SLP281 T00111100

More Conditions Fewer Conditions

10-Day Weather Forecast

Almanac

Astronomy

Oct. 30, 2014 Rise Set
Actual Time
Civil Twilight
Nautical Twilight
Astronomical Twilight
Moon
Length of Visible Light
Length of Day
Tomorrow will be .
, % of the Moon is Illuminated

Today's Extremes

State Highs State Lows

Community

WunderPhotos

Upload Photos

1,766,564 photos uploaded!

WunderBlogs® & News

Nearby

Air Quality

  Air Quality AQ Index Pollutant
Not available.

Snow Depth

Station Depth Elevation

Earthquake Activity

City Distance Mag. Time & Date
Minimum magnitude displayed is 2.5.

Coastal Water Temperatures

Place Temperature

Nearby Weather Stations